Time;durP1;ratioP1;P1;durP2;ratioP2;P2;SDS_P1;SDS_P2;PMS_P1;PMS_P2;Temp;Humidity;BMP_temperature;BMP_pressure;BME280_temperature;BME280_humidity;BME280_pressure;Samples;Min_cycle;Max_cycle;Signal;HPM_P1;HPM_P2
2023/10/17 00:01:04;;;;;;;6.93;1.50;;;14.90;99.90;;;;;;5066914;28;20201;-81
2023/10/17 00:03:37;;;;;;;5.38;0.98;;;15.20;99.90;;;;;;5068127;28;20193;-82
2023/10/17 00:06:12;;;;;;;8.73;1.83;;;15.40;99.90;;;;;;5073504;28;20189;-82
2023/10/17 00:08:43;;;;;;;9.20;1.63;;;15.60;99.90;;;;;;5070091;28;20192;-85
2023/10/17 00:11:17;;;;;;;8.18;1.90;;;15.50;99.90;;;;;;5068366;28;20198;-83
2023/10/17 00:13:59;;;;;;;6.28;1.30;;;15.50;99.90;;;;;;5054221;28;20225;-81
2023/10/17 00:16:33;;;;;;;5.68;1.30;;;15.40;99.90;;;;;;5062517;28;20279;-82
2023/10/17 00:19:09;;;;;;;7.32;1.20;;;15.10;99.90;;;;;;5073188;28;20185;-81
2023/10/17 00:21:42;;;;;;;7.90;1.50;;;14.70;99.90;;;;;;5071104;28;20238;-81
2023/10/17 00:24:13;;;;;;;7.22;1.60;;;14.60;99.90;;;;;;5069187;28;20243;-81
2023/10/17 00:26:44;;;;;;;6.05;1.48;;;14.50;99.90;;;;;;5067570;28;20197;-80
2023/10/17 00:29:15;;;;;;;9.32;2.70;;;14.60;99.90;;;;;;5068142;28;20228;-79
2023/10/17 00:31:46;;;;;;;9.45;2.20;;;14.40;99.90;;;;;;5060843;28;20224;-77
2023/10/17 00:34:17;;;;;;;7.60;1.85;;;14.50;99.90;;;;;;5064541;28;20247;-75
2023/10/17 00:36:51;;;;;;;10.32;2.20;;;14.50;99.90;;;;;;5070542;28;20213;-84
2023/10/17 00:39:29;;;;;;;8.77;1.83;;;14.70;99.90;;;;;;5071201;28;20196;-81
2023/10/17 00:42:27;;;;;;;7.05;1.67;;;14.90;99.90;;;;;;5068391;28;20204;-79
2023/10/17 00:44:58;;;;;;;3.90;1.08;;;15.20;99.90;;;;;;5059492;28;20216;-77
2023/10/17 00:47:29;;;;;;;5.80;1.45;;;15.20;99.90;;;;;;5065529;28;20289;-80
2023/10/17 00:50:08;;;;;;;7.10;1.05;;;15.50;99.90;;;;;;5074835;28;20238;-81
2023/10/17 00:52:41;;;;;;;4.22;1.60;;;15.60;99.90;;;;;;5071941;28;20243;-81
2023/10/17 00:55:13;;;;;;;6.13;1.27;;;15.60;99.90;;;;;;5058791;28;20284;-83
2023/10/17 00:57:45;;;;;;;7.70;1.25;;;15.70;99.90;;;;;;5070877;28;20210;-81
2023/10/17 01:00:23;;;;;;;5.50;1.08;;;15.80;99.90;;;;;;5062913;28;20286;-80
2023/10/17 01:03:01;;;;;;;5.30;1.20;;;16.10;99.90;;;;;;5063110;28;20199;-82
2023/10/17 01:05:33;;;;;;;4.85;1.00;;;16.50;99.90;;;;;;5070580;28;20192;-84
2023/10/17 01:08:06;;;;;;;7.35;1.20;;;17.00;99.90;;;;;;5063110;28;20634;-80
2023/10/17 01:10:37;;;;;;;8.60;1.10;;;17.00;99.90;;;;;;5069659;28;20197;-80
2023/10/17 01:13:08;;;;;;;2.28;0.80;;;17.00;99.90;;;;;;5075274;28;20240;-81
2023/10/17 01:15:39;;;;;;;9.35;1.30;;;17.00;99.90;;;;;;5075814;28;20280;-81
2023/10/17 01:18:11;;;;;;;8.40;1.45;;;16.90;99.90;;;;;;5065143;28;20225;-80
2023/10/17 01:20:42;;;;;;;7.30;1.42;;;16.80;99.90;;;;;;5074215;28;20541;-81
2023/10/17 01:23:15;;;;;;;6.90;1.38;;;16.90;99.90;;;;;;5065656;28;20225;-82
2023/10/17 01:25:49;;;;;;;5.05;0.80;;;16.80;99.90;;;;;;5067566;28;20196;-82
2023/10/17 01:28:19;;;;;;;6.68;1.50;;;16.90;99.90;;;;;;5062878;28;20204;-79
2023/10/17 01:30:53;;;;;;;6.95;1.30;;;17.00;99.90;;;;;;5073408;28;20558;-81
2023/10/17 01:33:29;;;;;;;7.55;1.33;;;17.10;99.90;;;;;;5073567;28;20657;-81
2023/10/17 01:36:01;;;;;;;9.50;1.70;;;17.30;99.90;;;;;;5063795;28;20687;-81
2023/10/17 01:38:32;;;;;;;7.40;1.50;;;17.60;99.90;;;;;;5071317;28;20217;-79
2023/10/17 01:41:05;;;;;;;4.65;1.13;;;17.70;99.90;;;;;;5070943;28;20197;-81
2023/10/17 01:43:40;;;;;;;4.93;1.20;;;17.60;99.90;;;;;;5062396;28;20622;-81
2023/10/17 01:46:14;;;;;;;6.53;1.25;;;17.50;99.90;;;;;;5067995;28;20273;-84
2023/10/17 01:48:47;;;;;;;6.95;1.38;;;17.30;99.90;;;;;;5065215;28;20200;-84
2023/10/17 01:51:19;;;;;;;7.10;1.00;;;17.20;99.90;;;;;;5067484;28;20222;-83
2023/10/17 01:53:53;;;;;;;4.50;0.95;;;17.00;99.90;;;;;;5057265;28;20201;-79
2023/10/17 01:56:27;;;;;;;6.05;0.93;;;16.70;99.90;;;;;;5061828;28;20297;-79
2023/10/17 01:59:04;;;;;;;9.93;1.30;;;16.70;99.90;;;;;;5056730;28;20216;-81
2023/10/17 02:01:36;;;;;;;4.75;1.10;;;16.70;99.90;;;;;;5074181;28;20193;-80
2023/10/17 02:04:12;;;;;;;4.25;1.10;;;16.60;99.90;;;;;;5066151;28;20280;-77
2023/10/17 02:06:45;;;;;;;6.80;1.00;;;16.40;99.90;;;;;;5071056;28;20192;-78
2023/10/17 02:09:24;;;;;;;8.10;1.23;;;16.60;99.90;;;;;;5074608;28;20216;-79
2023/10/17 02:12:00;;;;;;;8.07;1.23;;;17.00;99.90;;;;;;5065617;28;20228;-82
2023/10/17 02:14:31;;;;;;;8.48;1.17;;;17.20;99.90;;;;;;5068270;28;20542;-77
2023/10/17 02:17:02;;;;;;;7.25;1.80;;;17.40;99.90;;;;;;5072738;28;20524;-78
2023/10/17 02:19:36;;;;;;;7.00;1.50;;;17.70;99.90;;;;;;5063699;28;20859;-88
2023/10/17 02:22:10;;;;;;;5.60;1.02;;;17.80;99.90;;;;;;5069144;28;20192;-84
2023/10/17 02:24:41;;;;;;;9.32;1.20;;;18.10;99.90;;;;;;5064952;28;20289;-79
2023/10/17 02:27:14;;;;;;;6.25;0.88;;;18.20;99.90;;;;;;5071017;28;20207;-80
2023/10/17 02:29:48;;;;;;;5.95;1.08;;;18.40;99.90;;;;;;5073623;28;20205;-81
2023/10/17 02:32:19;;;;;;;4.13;1.08;;;18.50;99.90;;;;;;5068959;28;20221;-84
2023/10/17 02:34:49;;;;;;;5.22;0.68;;;18.40;99.90;;;;;;5064441;28;20306;-89
2023/10/17 02:37:29;;;;;;;5.82;0.90;;;18.20;99.90;;;;;;5057332;28;20198;-79
2023/10/17 02:40:06;;;;;;;4.80;0.90;;;18.10;99.90;;;;;;5060565;28;20251;-82
2023/10/17 02:42:39;;;;;;;5.60;1.00;;;18.20;99.90;;;;;;5059251;28;20197;-80
2023/10/17 02:45:11;;;;;;;3.65;0.73;;;18.20;99.90;;;;;;5063938;28;20273;-79
2023/10/17 02:47:43;;;;;;;7.50;1.02;;;18.30;99.90;;;;;;5063070;28;20283;-82
2023/10/17 02:50:41;;;;;;;5.07;1.02;;;18.30;99.90;;;;;;5065530;28;20590;-78
2023/10/17 02:53:14;;;;;;;5.05;1.42;;;18.30;99.90;;;;;;5072385;28;20292;-78
2023/10/17 02:55:44;;;;;;;4.88;1.10;;;18.10;99.90;;;;;;5067083;28;20566;-80
2023/10/17 02:58:17;;;;;;;4.85;0.98;;;18.00;99.90;;;;;;5073008;28;20216;-80
2023/10/17 03:00:50;;;;;;;3.78;0.90;;;18.20;99.90;;;;;;5074532;28;20272;-82
2023/10/17 03:03:21;;;;;;;3.58;0.75;;;18.40;99.90;;;;;;5064893;28;20672;-78
2023/10/17 03:05:53;;;;;;;4.68;0.70;;;18.60;99.90;;;;;;5072999;28;20258;-79
2023/10/17 03:08:24;;;;;;;6.38;1.15;;;18.80;99.90;;;;;;5071980;28;20292;-79
2023/10/17 03:11:00;;;;;;;5.22;0.80;;;18.70;99.90;;;;;;5080761;28;20214;-81
2023/10/17 03:13:40;;;;;;;6.78;0.90;;;18.60;99.90;;;;;;5059094;28;20211;-82
2023/10/17 03:16:24;;;;;;;7.70;0.85;;;18.40;99.90;;;;;;5054593;28;20737;-79
2023/10/17 03:18:57;;;;;;;3.55;0.80;;;18.20;99.90;;;;;;5071549;28;20673;-79
2023/10/17 03:21:34;;;;;;;4.93;0.80;;;18.10;99.90;;;;;;5071626;28;20673;-80
2023/10/17 03:24:05;;;;;;;6.07;0.85;;;18.00;99.90;;;;;;5074148;28;20192;-78
2023/10/17 03:26:39;;;;;;;3.75;0.77;;;17.80;99.90;;;;;;5072843;28;20264;-79
2023/10/17 03:29:18;;;;;;;3.95;0.70;;;17.50;99.90;;;;;;5054216;28;20237;-79
2023/10/17 03:31:53;;;;;;;3.25;0.90;;;17.20;99.90;;;;;;5059028;28;20228;-79
2023/10/17 03:34:34;;;;;;;4.68;0.80;;;17.20;99.90;;;;;;5074376;28;20184;-82
2023/10/17 03:39:56;;;;;;;4.38;0.90;;;17.40;99.90;;;;;;5060643;28;20197;-81
2023/10/17 03:42:46;;;;;;;4.13;0.88;;;17.60;99.90;;;;;;5070140;28;20547;-80
2023/10/17 03:45:23;;;;;;;3.05;0.80;;;17.60;99.90;;;;;;5073362;28;20193;-79
2023/10/17 03:47:57;;;;;;;4.53;0.77;;;17.70;99.90;;;;;;5073739;28;20197;-83
2023/10/17 03:50:36;;;;;;;3.70;0.73;;;17.90;99.90;;;;;;5073847;28;20220;-82
2023/10/17 03:53:14;;;;;;;4.90;0.80;;;17.90;99.90;;;;;;5073623;28;20278;-79
2023/10/17 03:55:48;;;;;;;4.63;0.80;;;17.90;99.90;;;;;;5073619;28;20192;-79
2023/10/17 03:58:28;;;;;;;3.00;0.85;;;18.00;99.90;;;;;;5073423;28;20221;-78
2023/10/17 04:01:06;;;;;;;4.15;0.70;;;17.90;99.90;;;;;;5073645;28;20197;-82
2023/10/17 04:03:37;;;;;;;3.85;0.88;;;17.90;99.90;;;;;;5073924;28;20184;-83
2023/10/17 04:06:18;;;;;;;5.68;0.75;;;18.00;99.90;;;;;;5074403;28;20233;-81
2023/10/17 04:08:56;;;;;;;3.20;0.80;;;18.00;99.90;;;;;;5073413;28;20195;-81
2023/10/17 04:11:36;;;;;;;3.90;0.70;;;17.90;99.90;;;;;;5073555;28;20235;-82
2023/10/17 04:14:10;;;;;;;3.15;0.77;;;17.90;99.90;;;;;;5073622;28;20246;-83
2023/10/17 04:16:44;;;;;;;3.42;0.52;;;17.80;99.90;;;;;;5073676;28;20308;-82
2023/10/17 04:19:18;;;;;;;3.97;0.60;;;17.60;99.90;;;;;;5073480;28;20588;-82
2023/10/17 04:22:01;;;;;;;4.60;0.70;;;17.50;99.90;;;;;;5073208;28;20191;-81
2023/10/17 04:24:34;;;;;;;3.15;0.50;;;17.60;99.90;;;;;;5073360;28;20188;-83
2023/10/17 04:27:19;;;;;;;1.02;0.50;;;17.60;99.90;;;;;;5073328;28;20189;-82
2023/10/17 04:29:56;;;;;;;2.33;0.50;;;17.70;99.90;;;;;;5073334;28;20193;-81
2023/10/17 04:32:33;;;;;;;2.28;0.73;;;17.70;99.90;;;;;;5073246;28;20229;-81
2023/10/17 04:35:10;;;;;;;5.90;1.23;;;17.70;99.90;;;;;;5073253;28;20189;-83
2023/10/17 04:37:44;;;;;;;5.15;0.73;;;17.90;99.90;;;;;;5073030;28;20207;-84
2023/10/17 04:40:37;;;;;;;3.00;0.68;;;17.90;99.90;;;;;;5073167;28;20196;-85
2023/10/17 04:45:55;;;;;;;2.75;0.60;;;17.80;99.90;;;;;;5073080;28;20199;-82
2023/10/17 04:48:40;;;;;;;5.45;0.90;;;17.70;99.90;;;;;;5071710;28;20288;-85
2023/10/17 04:54:09;;;;;;;3.90;0.52;;;17.70;99.90;;;;;;5069588;28;20299;-81
2023/10/17 04:56:52;;;;;;;3.67;0.70;;;17.60;99.90;;;;;;5073143;28;20196;-82
2023/10/17 04:59:41;;;;;;;2.22;0.70;;;17.50;99.90;;;;;;5073254;28;20221;-83
2023/10/17 05:08:18;;;;;;;1.52;0.60;;;17.40;99.90;;;;;;4977303;28;20215;-79
2023/10/17 06:17:49;;;;;;;5.03;1.10;;;16.10;99.90;;;;;;5068323;28;20327;-78
2023/10/17 06:20:44;;;;;;;6.95;1.30;;;16.00;99.90;;;;;;5070352;28;20239;-80
2023/10/17 06:24:06;;;;;;;6.82;1.30;;;16.00;99.90;;;;;;5071497;28;20645;-80
2023/10/17 06:32:06;;;;;;;5.20;1.02;;;15.90;99.90;;;;;;5074693;28;20244;-82
2023/10/17 06:34:35;;;;;;;7.07;1.20;;;15.90;99.90;;;;;;5070197;28;20227;-80
2023/10/17 06:37:07;;;;;;;5.43;0.90;;;16.10;99.90;;;;;;5074146;28;20300;-79
2023/10/17 06:39:46;;;;;;;4.63;0.98;;;16.10;99.90;;;;;;5071741;28;20247;-80
2023/10/17 06:42:18;;;;;;;4.57;0.80;;;16.00;99.90;;;;;;5075244;28;20582;-80
2023/10/17 06:44:54;;;;;;;8.70;1.10;;;15.90;99.90;;;;;;5074488;28;20712;-79
2023/10/17 06:47:30;;;;;;;6.32;0.95;;;15.80;99.90;;;;;;5064444;28;20192;-80
2023/10/17 06:53:02;;;;;;;6.32;1.08;;;15.60;99.90;;;;;;5037918;28;20258;-78
2023/10/17 06:55:38;;;;;;;4.53;0.90;;;15.40;99.90;;;;;;5056299;28;20198;-78
2023/10/17 06:58:14;;;;;;;8.00;0.82;;;15.40;99.90;;;;;;5057534;28;20660;-80
2023/10/17 07:00:53;;;;;;;5.65;1.00;;;15.30;99.90;;;;;;5074074;28;20668;-79
2023/10/17 07:03:27;;;;;;;4.68;1.02;;;15.30;99.90;;;;;;5074361;28;20219;-78
2023/10/17 07:06:11;;;;;;;5.80;1.17;;;15.20;99.90;;;;;;5074363;28;20195;-78
2023/10/17 07:08:42;;;;;;;7.40;1.33;;;15.10;99.90;;;;;;5055356;28;20339;-79
2023/10/17 07:11:24;;;;;;;6.13;0.90;;;15.10;99.90;;;;;;5064946;28;20184;-77
2023/10/17 07:17:00;;;;;;;4.78;0.93;;;15.00;99.90;;;;;;5054077;28;20335;-78
2023/10/17 07:19:47;;;;;;;5.75;1.00;;;14.90;99.90;;;;;;5059621;28;20217;-78
2023/10/17 07:22:18;;;;;;;5.20;0.90;;;14.90;99.90;;;;;;5066777;28;20680;-78
2023/10/17 07:24:50;;;;;;;6.43;1.05;;;15.00;99.90;;;;;;5063070;28;20237;-78
2023/10/17 07:27:26;;;;;;;5.10;1.10;;;15.00;99.90;;;;;;5069263;28;20212;-83
2023/10/17 07:30:10;;;;;;;3.33;1.00;;;14.90;99.90;;;;;;5071766;28;20258;-78
2023/10/17 07:32:49;;;;;;;5.00;0.90;;;14.90;99.90;;;;;;5060529;28;20232;-78
2023/10/17 07:35:25;;;;;;;4.35;1.00;;;14.90;99.90;;;;;;5063161;28;20193;-79
2023/10/17 07:38:00;;;;;;;3.83;0.90;;;14.90;99.90;;;;;;5068259;28;20283;-80
2023/10/17 07:40:42;;;;;;;4.93;0.75;;;14.90;99.90;;;;;;5071421;28;20692;-79
2023/10/17 07:43:14;;;;;;;3.63;0.75;;;14.80;99.90;;;;;;5072616;28;20193;-79
2023/10/17 07:45:45;;;;;;;3.10;0.60;;;14.80;99.90;;;;;;5073668;28;20213;-78
2023/10/17 07:48:27;;;;;;;6.38;1.00;;;14.80;99.90;;;;;;5060006;28;20201;-81
2023/10/17 07:50:59;;;;;;;2.28;0.70;;;14.80;99.90;;;;;;5054839;28;20555;-80
2023/10/17 07:53:32;;;;;;;3.55;0.85;;;14.80;99.90;;;;;;5069897;28;20224;-79
2023/10/17 07:56:11;;;;;;;4.35;1.10;;;14.80;99.90;;;;;;5059465;28;20205;-81
2023/10/17 07:58:44;;;;;;;3.78;0.80;;;14.80;99.90;;;;;;5052769;28;20232;-79
2023/10/17 08:01:16;;;;;;;5.38;0.88;;;14.70;99.90;;;;;;5065819;28;20193;-80
2023/10/17 08:03:57;;;;;;;4.35;0.88;;;14.60;99.90;;;;;;5059342;28;20242;-79
2023/10/17 08:06:31;;;;;;;5.57;1.05;;;14.60;99.90;;;;;;5058419;28;20193;-80
2023/10/17 08:09:02;;;;;;;1.92;0.70;;;14.50;99.90;;;;;;5061196;28;20797;-80
2023/10/17 08:11:37;;;;;;;4.18;0.90;;;14.50;99.90;;;;;;5058280;28;20276;-81
2023/10/17 08:14:09;;;;;;;5.18;0.90;;;14.50;99.90;;;;;;5060339;28;20212;-81
2023/10/17 08:16:42;;;;;;;5.20;0.90;;;14.50;99.90;;;;;;5067242;28;20223;-80
2023/10/17 08:19:16;;;;;;;5.20;0.85;;;14.50;99.90;;;;;;5068618;28;20759;-79
2023/10/17 08:21:59;;;;;;;5.78;1.00;;;14.50;99.90;;;;;;5061595;28;20196;-81
2023/10/17 08:24:33;;;;;;;7.45;1.10;;;14.50;99.90;;;;;;5061134;28;20197;-80
2023/10/17 08:27:19;;;;;;;3.20;0.90;;;14.40;99.90;;;;;;5061209;28;20717;-80
2023/10/17 08:29:57;;;;;;;6.13;1.00;;;14.40;99.90;;;;;;5054029;28;20201;-79
2023/10/17 08:32:41;;;;;;;5.65;1.10;;;14.30;99.90;;;;;;5054448;28;20236;-80
2023/10/17 08:35:19;;;;;;;5.20;1.17;;;14.20;99.90;;;;;;5053559;28;20236;-79
2023/10/17 08:37:52;;;;;;;4.40;1.00;;;14.20;99.90;;;;;;5061448;28;20193;-77
2023/10/17 08:40:31;;;;;;;4.85;1.00;;;14.20;99.90;;;;;;5063496;28;20221;-79
2023/10/17 08:43:06;;;;;;;4.90;0.88;;;14.10;99.90;;;;;;5058180;28;20193;-79
2023/10/17 08:45:40;;;;;;;5.97;1.00;;;14.10;99.90;;;;;;5069013;28;20200;-77
2023/10/17 08:48:11;;;;;;;3.05;0.70;;;14.10;99.90;;;;;;5064495;28;20199;-77
2023/10/17 08:50:44;;;;;;;5.50;1.02;;;14.10;99.90;;;;;;5065878;28;20303;-78
2023/10/17 08:53:20;;;;;;;5.70;0.80;;;14.10;99.90;;;;;;5063376;28;20818;-79
2023/10/17 08:55:51;;;;;;;2.72;0.60;;;14.10;99.90;;;;;;5057465;28;20244;-78
2023/10/17 08:58:24;;;;;;;4.85;0.82;;;14.10;99.90;;;;;;5055977;28;20194;-79
2023/10/17 09:01:07;;;;;;;5.82;1.00;;;14.10;99.90;;;;;;5051851;28;20225;-79
2023/10/17 09:03:46;;;;;;;4.60;0.88;;;14.10;99.90;;;;;;5066627;28;20246;-78
2023/10/17 09:06:32;;;;;;;5.57;0.90;;;14.10;99.90;;;;;;5070633;28;20200;-77
2023/10/17 09:09:21;;;;;;;3.03;0.88;;;14.10;99.90;;;;;;5070758;28;20205;-79
2023/10/17 09:12:19;;;;;;;5.32;0.80;;;14.10;99.90;;;;;;5073658;28;20199;-79
2023/10/17 09:14:52;;;;;;;5.55;1.40;;;14.10;99.90;;;;;;5075158;28;20570;-80
2023/10/17 09:17:31;;;;;;;5.10;1.10;;;14.10;99.90;;;;;;5058049;28;20567;-78
2023/10/17 09:20:11;;;;;;;8.27;1.02;;;14.10;99.90;;;;;;5060302;28;20224;-78
2023/10/17 09:22:44;;;;;;;7.50;0.80;;;14.20;99.90;;;;;;5072304;28;20196;-78
2023/10/17 09:25:22;;;;;;;7.38;0.98;;;14.20;99.90;;;;;;5056632;28;20190;-79
2023/10/17 09:27:56;;;;;;;3.78;0.90;;;14.10;99.90;;;;;;5072815;28;20201;-78
2023/10/17 09:30:27;;;;;;;6.05;1.23;;;14.10;99.90;;;;;;5057527;28;20201;-78
2023/10/17 09:32:59;;;;;;;6.28;1.00;;;14.20;99.90;;;;;;5056354;28;20196;-78
2023/10/17 09:35:30;;;;;;;5.72;1.15;;;14.10;99.90;;;;;;5063576;28;20224;-78
2023/10/17 09:38:07;;;;;;;5.40;1.60;;;14.10;99.90;;;;;;5061997;28;20271;-78
2023/10/17 09:40:38;;;;;;;8.45;1.23;;;14.10;99.90;;;;;;5074996;28;20212;-78
2023/10/17 09:43:09;;;;;;;5.55;1.25;;;14.10;99.90;;;;;;5056628;28;20194;-78
2023/10/17 09:45:41;;;;;;;10.18;1.60;;;14.10;99.90;;;;;;5074402;28;20280;-78
2023/10/17 09:48:15;;;;;;;8.20;1.40;;;14.10;99.90;;;;;;5074875;28;20633;-78
2023/10/17 09:50:48;;;;;;;9.23;1.30;;;14.10;99.90;;;;;;5061222;28;20200;-79
2023/10/17 09:53:22;;;;;;;8.88;1.20;;;14.10;99.90;;;;;;5066445;28;20201;-78
2023/10/17 09:55:55;;;;;;;7.68;1.33;;;14.10;99.90;;;;;;5072024;28;20207;-76
2023/10/17 09:58:30;;;;;;;8.02;1.30;;;14.10;99.90;;;;;;5073098;28;20661;-77
2023/10/17 10:01:05;;;;;;;7.80;1.30;;;14.10;99.90;;;;;;5067576;28;20217;-76
2023/10/17 10:03:40;;;;;;;5.07;1.20;;;14.20;99.90;;;;;;5074505;28;20283;-76
2023/10/17 10:06:30;;;;;;;6.40;1.42;;;14.20;99.90;;;;;;5065764;28;20661;-76
2023/10/17 10:09:28;;;;;;;4.50;1.10;;;14.20;99.90;;;;;;5072649;28;20193;-76
2023/10/17 10:12:03;;;;;;;6.80;1.55;;;14.20;99.90;;;;;;5071295;28;20203;-76
2023/10/17 10:14:44;;;;;;;7.03;1.20;;;14.20;99.90;;;;;;5074200;28;20197;-78
2023/10/17 10:17:17;;;;;;;5.00;0.98;;;14.20;99.90;;;;;;5073088;28;20196;-77
2023/10/17 10:20:04;;;;;;;5.45;0.82;;;14.20;99.90;;;;;;5072751;28;20211;-77
2023/10/17 10:22:56;;;;;;;5.03;0.90;;;14.10;99.90;;;;;;5072494;28;20620;-78
2023/10/17 10:25:29;;;;;;;7.22;1.10;;;14.10;99.90;;;;;;5068012;28;20306;-78
2023/10/17 10:28:31;;;;;;;5.05;1.17;;;14.10;99.90;;;;;;5070636;28;20232;-76
2023/10/17 10:31:02;;;;;;;5.57;1.00;;;14.10;99.90;;;;;;5077995;28;20232;-78
2023/10/17 10:33:35;;;;;;;3.65;1.00;;;14.10;99.90;;;;;;5063165;28;20197;-76
2023/10/17 10:36:07;;;;;;;3.33;1.13;;;14.10;99.90;;;;;;5074980;28;20653;-77
2023/10/17 10:38:38;;;;;;;5.20;1.00;;;14.10;99.90;;;;;;5074330;28;20217;-78
2023/10/17 10:41:13;;;;;;;5.25;1.23;;;14.10;99.90;;;;;;5074553;28;20217;-77
2023/10/17 10:43:47;;;;;;;4.40;0.95;;;14.10;99.90;;;;;;5069281;28;20185;-77
2023/10/17 10:46:18;;;;;;;4.68;1.13;;;14.10;99.90;;;;;;5071423;28;20704;-79
2023/10/17 10:48:53;;;;;;;4.47;1.00;;;14.10;99.90;;;;;;5069532;28;20225;-78
2023/10/17 10:51:25;;;;;;;3.40;1.00;;;14.10;99.90;;;;;;5065740;28;20192;-77
2023/10/17 10:53:56;;;;;;;6.65;1.45;;;14.10;99.90;;;;;;5074054;28;20196;-78
2023/10/17 10:56:29;;;;;;;6.10;1.33;;;14.10;99.90;;;;;;5074324;28;20280;-78
2023/10/17 10:59:02;;;;;;;5.10;1.27;;;14.10;99.90;;;;;;5070700;28;20197;-78
2023/10/17 11:01:33;;;;;;;5.72;1.17;;;14.10;99.90;;;;;;5069578;28;20236;-77
2023/10/17 11:04:07;;;;;;;3.85;1.17;;;14.00;99.90;;;;;;5062304;28;20197;-77
2023/10/17 11:06:38;;;;;;;3.22;1.30;;;14.00;99.90;;;;;;5070415;28;20313;-76
2023/10/17 11:09:16;;;;;;;6.57;1.25;;;14.00;99.90;;;;;;5071826;28;20201;-78
2023/10/17 11:11:53;;;;;;;5.00;1.10;;;14.00;99.90;;;;;;5062088;28;20555;-78
2023/10/17 11:14:24;;;;;;;4.15;1.02;;;14.00;99.90;;;;;;5065032;28;20199;-77
2023/10/17 11:16:59;;;;;;;4.10;1.20;;;14.00;99.90;;;;;;5071026;28;20196;-78
2023/10/17 11:19:31;;;;;;;5.95;1.33;;;14.00;99.90;;;;;;5065166;28;20292;-77
2023/10/17 11:22:02;;;;;;;4.50;1.35;;;14.00;99.90;;;;;;5055776;28;20198;-77
2023/10/17 11:24:34;;;;;;;4.50;1.20;;;14.00;99.90;;;;;;5073171;28;20201;-78
2023/10/17 11:27:07;;;;;;;6.18;1.40;;;14.00;99.90;;;;;;5073485;28;20207;-77
2023/10/17 11:29:38;;;;;;;5.32;1.20;;;14.00;99.90;;;;;;5074262;28;20708;-77
2023/10/17 11:32:11;;;;;;;3.40;1.00;;;14.00;99.90;;;;;;5073277;28;20229;-79
2023/10/17 11:34:46;;;;;;;4.65;1.40;;;14.00;99.90;;;;;;5066956;28;20284;-79
2023/10/17 11:37:22;;;;;;;3.20;1.25;;;14.00;99.90;;;;;;5073120;28;20224;-78
2023/10/17 11:40:03;;;;;;;3.33;1.30;;;14.00;99.90;;;;;;5067091;28;20220;-78
2023/10/17 11:42:36;;;;;;;5.57;1.30;;;14.00;99.90;;;;;;5067681;28;20193;-77
2023/10/17 11:45:24;;;;;;;7.25;1.20;;;14.10;99.90;;;;;;5071680;28;20189;-78
2023/10/17 11:47:55;;;;;;;6.30;1.20;;;14.10;99.90;;;;;;5061318;28;20204;-78
2023/10/17 11:50:38;;;;;;;6.47;1.10;;;14.10;99.90;;;;;;5056528;28;20247;-77
2023/10/17 11:53:15;;;;;;;3.20;0.68;;;14.10;99.90;;;;;;5071718;28;20576;-77
2023/10/17 11:55:50;;;;;;;3.63;0.73;;;14.00;99.90;;;;;;5059745;28;20201;-79
2023/10/17 11:58:29;;;;;;;3.75;0.80;;;14.00;99.90;;;;;;5055630;28;20742;-78
2023/10/17 12:00:59;;;;;;;3.15;0.60;;;13.90;99.90;;;;;;5070070;28;20256;-77
2023/10/17 12:03:31;;;;;;;3.50;0.68;;;13.90;99.90;;;;;;5067546;28;20205;-77
2023/10/17 12:06:02;;;;;;;4.65;0.52;;;13.90;99.90;;;;;;5067573;28;20657;-78
2023/10/17 12:08:33;;;;;;;3.13;0.60;;;13.90;99.90;;;;;;5070068;28;20272;-78
2023/10/17 12:11:03;;;;;;;1.98;0.60;;;14.00;99.90;;;;;;5071983;28;20284;-79
2023/10/17 12:13:37;;;;;;;3.13;0.70;;;14.00;99.90;;;;;;5071517;28;20284;-75
2023/10/17 12:16:11;;;;;;;5.80;0.80;;;14.00;99.90;;;;;;5072657;28;20200;-78
2023/10/17 12:18:42;;;;;;;4.60;0.82;;;14.00;99.90;;;;;;5068398;28;20205;-76
2023/10/17 12:21:14;;;;;;;5.10;0.90;;;14.00;99.90;;;;;;5072227;28;20298;-78
2023/10/17 12:23:45;;;;;;;4.47;1.00;;;14.10;99.90;;;;;;5071438;28;20283;-78
2023/10/17 12:26:19;;;;;;;5.45;1.00;;;14.10;99.90;;;;;;5071088;28;20192;-78
2023/10/17 12:28:54;;;;;;;5.70;1.48;;;14.10;99.90;;;;;;5069770;28;20197;-77
2023/10/17 12:31:25;;;;;;;5.22;1.20;;;14.10;99.90;;;;;;5071988;28;20224;-78
2023/10/17 12:33:57;;;;;;;6.25;1.02;;;14.10;99.90;;;;;;5071740;28;20280;-79
2023/10/17 12:36:28;;;;;;;4.68;1.30;;;14.10;99.90;;;;;;5071746;28;20279;-78
2023/10/17 12:38:59;;;;;;;5.45;1.20;;;14.10;99.90;;;;;;5059375;28;20197;-79
2023/10/17 12:41:33;;;;;;;4.68;1.17;;;14.10;99.90;;;;;;5072550;28;20307;-79
2023/10/17 12:44:06;;;;;;;2.83;0.95;;;14.10;99.90;;;;;;5072940;28;20246;-79
2023/10/17 12:46:37;;;;;;;4.90;1.40;;;14.10;99.90;;;;;;5073172;28;20193;-78
2023/10/17 12:49:10;;;;;;;5.78;1.10;;;14.10;99.90;;;;;;5058788;28;20216;-79
2023/10/17 12:51:41;;;;;;;4.50;1.02;;;14.10;99.90;;;;;;5069870;28;20210;-78
2023/10/17 12:54:12;;;;;;;2.92;0.98;;;14.00;99.90;;;;;;5071244;28;20266;-78
2023/10/17 12:56:43;;;;;;;2.53;1.15;;;14.00;99.90;;;;;;5064242;28;20193;-78
2023/10/17 12:59:16;;;;;;;2.45;0.98;;;14.00;99.90;;;;;;5063398;28;20683;-79
2023/10/17 13:01:48;;;;;;;5.47;1.23;;;14.00;99.90;;;;;;5069271;28;20310;-78
2023/10/17 13:04:20;;;;;;;6.25;1.58;;;14.00;99.90;;;;;;5070244;28;20563;-78
2023/10/17 13:06:53;;;;;;;5.25;1.17;;;14.00;99.90;;;;;;5068328;28;20198;-78
2023/10/17 13:09:24;;;;;;;5.10;1.10;;;14.00;99.90;;;;;;5070149;28;20227;-78
2023/10/17 13:11:55;;;;;;;3.30;1.05;;;13.90;99.90;;;;;;5072181;28;20200;-78
2023/10/17 13:14:28;;;;;;;2.90;1.00;;;13.90;99.90;;;;;;5053688;28;20278;-78
2023/10/17 13:16:59;;;;;;;3.95;1.20;;;13.80;99.90;;;;;;5056991;28;20673;-78
2023/10/17 13:19:33;;;;;;;4.57;1.05;;;13.90;99.90;;;;;;5068058;28;20645;-78
2023/10/17 13:22:08;;;;;;;2.55;0.90;;;13.90;99.90;;;;;;5056498;28;20269;-78
2023/10/17 13:24:39;;;;;;;5.55;1.00;;;13.90;99.90;;;;;;5070792;28;20205;-78
2023/10/17 13:27:10;;;;;;;7.53;1.00;;;13.90;99.90;;;;;;5062926;28;20189;-78
2023/10/17 13:29:42;;;;;;;6.25;1.08;;;13.90;99.90;;;;;;5062351;28;20208;-77
2023/10/17 13:32:13;;;;;;;4.47;0.90;;;13.90;99.90;;;;;;5062937;28;20240;-78
2023/10/17 13:34:46;;;;;;;3.47;0.98;;;13.90;99.90;;;;;;5071118;28;20220;-77
2023/10/17 13:37:17;;;;;;;4.70;1.00;;;13.90;99.90;;;;;;5058452;28;20201;-78
2023/10/17 13:39:48;;;;;;;5.85;1.20;;;13.90;99.90;;;;;;5062586;28;20197;-78
2023/10/17 13:42:19;;;;;;;5.53;1.05;;;13.90;99.90;;;;;;5055844;28;20223;-78
2023/10/17 13:44:53;;;;;;;3.30;0.90;;;13.90;99.90;;;;;;5071170;28;20591;-78
2023/10/17 13:47:25;;;;;;;3.60;0.80;;;13.90;99.90;;;;;;5069593;28;20211;-78
2023/10/17 13:49:56;;;;;;;3.53;0.90;;;13.80;99.90;;;;;;5068992;28;20563;-78
2023/10/17 13:52:27;;;;;;;6.30;0.98;;;13.80;99.90;;;;;;5053317;28;20281;-78
2023/10/17 13:54:59;;;;;;;4.80;1.02;;;13.80;99.90;;;;;;5064936;28;20189;-79
2023/10/17 13:57:31;;;;;;;1.90;0.82;;;13.80;99.90;;;;;;5071268;28;20200;-78
2023/10/17 14:00:05;;;;;;;7.70;1.00;;;13.80;99.90;;;;;;5063835;28;20221;-79
2023/10/17 14:02:36;;;;;;;2.95;0.80;;;13.80;99.90;;;;;;5064844;28;20200;-78
2023/10/17 14:05:08;;;;;;;3.72;0.85;;;13.80;99.90;;;;;;5070032;28;20553;-78
2023/10/17 14:07:39;;;;;;;6.50;1.20;;;13.80;99.90;;;;;;5071224;28;20251;-78
2023/10/17 14:10:11;;;;;;;3.88;0.75;;;13.80;99.90;;;;;;5061576;28;20588;-78
2023/10/17 14:12:42;;;;;;;5.30;1.02;;;13.80;99.90;;;;;;5075108;28;20225;-78
2023/10/17 14:15:15;;;;;;;4.70;1.05;;;13.80;99.90;;;;;;5075841;28;20196;-78
2023/10/17 14:17:53;;;;;;;8.15;1.08;;;13.80;99.90;;;;;;5074546;28;20591;-78
2023/10/17 14:20:38;;;;;;;3.65;0.80;;;13.80;99.90;;;;;;5073135;28;20201;-79
2023/10/17 14:23:16;;;;;;;4.95;0.95;;;13.70;99.90;;;;;;5074223;28;20276;-78
2023/10/17 14:28:34;;;;;;;4.00;1.13;;;13.70;99.90;;;;;;5073189;28;20216;-79
2023/10/17 14:31:06;;;;;;;3.67;0.82;;;13.70;99.90;;;;;;5070152;28;20241;-78
2023/10/17 14:33:37;;;;;;;7.35;1.20;;;13.70;99.90;;;;;;5074454;28;20201;-79
2023/10/17 14:36:09;;;;;;;4.60;0.98;;;13.70;99.90;;;;;;5074385;28;20211;-79
2023/10/17 14:38:39;;;;;;;4.13;0.82;;;13.70;99.90;;;;;;5072966;28;20204;-77
2023/10/17 14:41:14;;;;;;;4.50;1.20;;;13.70;99.90;;;;;;5073723;28;20212;-78
2023/10/17 14:43:46;;;;;;;3.35;1.05;;;13.70;99.90;;;;;;5074088;28;20196;-78
2023/10/17 14:46:20;;;;;;;4.32;0.88;;;13.60;99.90;;;;;;5074441;28;20231;-78
2023/10/17 14:48:51;;;;;;;3.85;1.00;;;13.70;99.90;;;;;;5060970;28;20255;-77
2023/10/17 14:51:22;;;;;;;3.92;1.10;;;13.60;99.90;;;;;;5073493;28;20224;-78
2023/10/17 14:53:53;;;;;;;4.10;0.80;;;13.70;99.90;;;;;;5074912;28;20189;-77
2023/10/17 14:56:27;;;;;;;4.53;1.00;;;13.70;99.90;;;;;;5073812;28;20272;-78
2023/10/17 14:58:58;;;;;;;6.68;0.93;;;13.70;99.90;;;;;;5060229;28;20636;-79
2023/10/17 15:01:31;;;;;;;6.50;1.25;;;13.70;99.90;;;;;;5057467;28;20681;-78
2023/10/17 15:04:02;;;;;;;2.97;0.80;;;13.70;99.90;;;;;;5073203;28;20200;-78